Time;durP1;ratioP1;P1;durP2;ratioP2;P2;SDS_P1;SDS_P2;PMS_P1;PMS_P2;Temp;Humidity;BMP_temperature;BMP_pressure;BME280_temperature;BME280_humidity;BME280_pressure;Samples;Min_cycle;Max_cycle;Signal;HPM_P1;HPM_P2
2022/01/20 00:00:14;;;;;;;9.68;8.20;;;2.60;99.90;;;;;;5008320;28;20026;-66
2022/01/20 00:02:41;;;;;;;9.40;7.38;;;2.60;99.90;;;;;;5010079;28;20149;-65
2022/01/20 00:05:28;;;;;;;9.65;7.57;;;2.60;99.90;;;;;;5007395;28;20053;-65
2022/01/20 00:27:07;;;;;;;6.45;5.60;;;2.60;99.90;;;;;;5008862;28;20044;-65
2022/01/20 00:29:50;;;;;;;7.57;5.60;;;2.60;99.90;;;;;;5007262;28;20807;-66
2022/01/20 00:32:18;;;;;;;6.63;5.95;;;2.60;99.90;;;;;;5007936;28;20057;-65
2022/01/20 00:35:03;;;;;;;8.38;5.05;;;2.60;99.90;;;;;;5009283;28;20409;-65
2022/01/20 00:37:31;;;;;;;5.53;5.03;;;2.60;99.90;;;;;;5007534;28;20042;-66
2022/01/20 00:39:59;;;;;;;5.13;4.65;;;2.70;99.90;;;;;;4996973;28;20121;-66
2022/01/20 00:42:27;;;;;;;6.43;5.82;;;2.70;99.90;;;;;;5007628;28;20393;-66
2022/01/20 00:44:53;;;;;;;6.30;5.70;;;2.70;99.90;;;;;;5007733;28;20533;-66
2022/01/20 00:47:20;;;;;;;5.88;5.22;;;2.70;99.90;;;;;;5007569;28;20073;-66
2022/01/20 00:49:54;;;;;;;6.47;5.80;;;2.70;99.90;;;;;;5006728;28;20081;-66
2022/01/20 00:52:20;;;;;;;5.60;5.05;;;2.70;99.90;;;;;;5008131;28;20022;-65
2022/01/20 00:54:48;;;;;;;6.15;5.57;;;2.70;99.90;;;;;;5006057;28;20092;-66
2022/01/20 00:57:14;;;;;;;6.93;6.22;;;2.70;99.90;;;;;;5008599;28;20481;-66
2022/01/20 00:59:40;;;;;;;6.32;5.50;;;2.80;99.90;;;;;;5007148;28;20036;-66
2022/01/20 01:02:08;;;;;;;6.45;5.85;;;2.80;99.90;;;;;;5007773;28;20030;-65
2022/01/20 01:04:51;;;;;;;6.60;6.00;;;2.80;99.90;;;;;;5006960;28;20401;-66
2022/01/20 01:09:54;;;;;;;6.15;5.55;;;2.80;99.90;;;;;;5004993;28;20037;-67
2022/01/20 01:12:32;;;;;;;6.45;5.85;;;2.80;99.90;;;;;;5006923;28;20398;-66
2022/01/20 01:14:58;;;;;;;6.38;5.78;;;2.80;99.90;;;;;;5007518;28;20100;-66
2022/01/20 01:24:45;;;;;;;6.85;6.15;;;2.80;99.90;;;;;;5007546;28;20034;-67
2022/01/20 01:27:14;;;;;;;6.75;6.15;;;2.90;99.90;;;;;;5006909;28;20108;-66
2022/01/20 01:32:09;;;;;;;6.65;5.72;;;2.90;99.90;;;;;;5006070;28;20457;-66
2022/01/20 01:34:38;;;;;;;7.60;7.00;;;2.90;99.90;;;;;;5008366;28;20026;-66
2022/01/20 01:37:23;;;;;;;6.68;5.95;;;2.90;99.90;;;;;;5006933;28;20093;-66
2022/01/20 01:39:49;;;;;;;6.47;5.88;;;2.90;99.90;;;;;;5005366;28;20030;-66
2022/01/20 01:42:21;;;;;;;6.63;6.03;;;2.90;99.90;;;;;;5007439;28;20044;-67
2022/01/20 01:44:46;;;;;;;6.57;5.97;;;2.90;99.90;;;;;;5006881;28;20033;-66
2022/01/20 01:47:12;;;;;;;6.45;5.75;;;2.90;99.90;;;;;;5007476;28;20022;-66
2022/01/20 01:49:38;;;;;;;6.90;6.07;;;2.90;99.90;;;;;;5005586;28;20062;-66
2022/01/20 01:52:03;;;;;;;6.60;6.00;;;2.90;99.90;;;;;;5007999;28;20038;-67
2022/01/20 01:54:30;;;;;;;5.85;5.25;;;2.90;99.90;;;;;;5006536;28;20061;-66
2022/01/20 01:56:56;;;;;;;6.15;5.55;;;2.90;99.90;;;;;;5006724;28;20478;-66
2022/01/20 01:59:21;;;;;;;5.88;5.35;;;3.00;99.90;;;;;;5009774;28;20026;-67
2022/01/20 02:01:47;;;;;;;6.10;5.18;;;3.00;99.90;;;;;;5011758;28;20037;-65
2022/01/20 02:04:19;;;;;;;7.55;5.90;;;3.00;99.90;;;;;;5011303;28;20034;-66
2022/01/20 02:20:13;;;;;;;5.93;5.32;;;3.10;99.90;;;;;;5011198;28;20180;-66
2022/01/20 02:22:40;;;;;;;6.30;5.70;;;3.10;99.90;;;;;;5010449;28;20026;-65
2022/01/20 02:25:16;;;;;;;9.65;5.80;;;3.10;99.90;;;;;;5011095;28;20388;-65
2022/01/20 02:27:42;;;;;;;6.18;5.57;;;3.10;99.90;;;;;;5009237;28;20034;-65
2022/01/20 02:30:08;;;;;;;7.57;6.15;;;3.10;99.90;;;;;;5011847;28;20036;-66
2022/01/20 02:32:33;;;;;;;6.10;5.50;;;3.10;99.90;;;;;;5010016;28;20022;-65
2022/01/20 02:34:59;;;;;;;5.18;4.68;;;3.10;99.90;;;;;;5010569;28;20037;-65
2022/01/20 02:37:25;;;;;;;5.45;4.95;;;3.10;99.90;;;;;;5008893;28;20046;-66
2022/01/20 02:40:26;;;;;;;5.65;5.07;;;3.10;99.90;;;;;;5010251;28;20040;-65
2022/01/20 02:45:27;;;;;;;5.50;4.78;;;3.10;99.90;;;;;;5010136;28;20091;-65
2022/01/20 02:47:52;;;;;;;5.70;4.43;;;3.10;99.90;;;;;;5011405;28;20428;-65
2022/01/20 02:50:18;;;;;;;5.47;4.47;;;3.10;99.90;;;;;;5009564;28;20041;-66
2022/01/20 02:52:45;;;;;;;6.05;4.88;;;3.20;99.90;;;;;;5010882;28;20794;-66
2022/01/20 02:55:10;;;;;;;4.93;4.32;;;3.20;99.90;;;;;;5009425;28;20032;-66
2022/01/20 02:57:36;;;;;;;8.68;4.22;;;3.20;99.90;;;;;;5007125;28;20037;-67
2022/01/20 03:00:07;;;;;;;7.32;4.82;;;3.20;99.90;;;;;;5009252;28;20074;-67
2022/01/20 03:02:33;;;;;;;4.63;4.03;;;3.20;99.90;;;;;;5007658;28;20037;-66
2022/01/20 03:04:59;;;;;;;4.40;4.00;;;3.20;99.90;;;;;;5006669;28;20040;-66
2022/01/20 03:07:24;;;;;;;5.63;3.97;;;3.20;99.90;;;;;;5010461;28;20113;-66
2022/01/20 03:09:50;;;;;;;4.85;3.88;;;3.20;99.90;;;;;;5010082;28;20080;-67
2022/01/20 03:12:16;;;;;;;8.43;4.70;;;3.30;99.90;;;;;;5009638;28;20032;-66
2022/01/20 03:14:42;;;;;;;6.30;4.22;;;3.20;99.90;;;;;;5009916;28;20093;-66
2022/01/20 03:17:08;;;;;;;4.45;3.60;;;3.20;99.90;;;;;;5010140;28;20034;-66
2022/01/20 03:19:34;;;;;;;7.50;3.92;;;3.20;99.90;;;;;;5008852;28;20080;-66
2022/01/20 03:21:59;;;;;;;6.45;3.95;;;3.20;99.90;;;;;;5010033;28;20030;-65
2022/01/20 03:24:28;;;;;;;6.43;3.90;;;3.20;99.90;;;;;;5009978;28;20018;-66
2022/01/20 03:26:54;;;;;;;4.80;3.55;;;3.20;99.90;;;;;;5006977;28;20072;-66
2022/01/20 03:29:19;;;;;;;5.10;4.20;;;3.20;99.90;;;;;;5010209;28;20497;-65
2022/01/20 03:31:48;;;;;;;5.90;4.85;;;3.30;99.90;;;;;;5010250;28;20025;-66
2022/01/20 03:34:14;;;;;;;7.38;4.68;;;3.30;99.90;;;;;;5009820;28;20034;-66
2022/01/20 03:36:39;;;;;;;7.20;3.30;;;3.20;99.90;;;;;;5008009;28;20088;-66
2022/01/20 03:39:06;;;;;;;6.05;3.83;;;3.20;99.90;;;;;;5010186;28;20061;-65
2022/01/20 03:41:31;;;;;;;4.85;4.10;;;3.20;99.90;;;;;;5008380;28;20117;-65
2022/01/20 03:43:57;;;;;;;8.25;4.70;;;3.20;99.90;;;;;;5008632;28;20121;-65
2022/01/20 03:46:23;;;;;;;7.60;4.40;;;3.20;99.90;;;;;;5010261;28;20528;-65
2022/01/20 03:48:55;;;;;;;6.38;4.95;;;3.10;99.90;;;;;;5009536;28;20440;-66
2022/01/20 03:51:25;;;;;;;8.23;5.20;;;3.10;99.90;;;;;;5007962;28;20033;-66
2022/01/20 03:53:53;;;;;;;11.98;4.18;;;3.20;99.90;;;;;;5009383;28;20490;-66
2022/01/20 03:56:20;;;;;;;5.22;3.33;;;3.10;99.90;;;;;;5008749;28;20038;-66
2022/01/20 03:58:47;;;;;;;6.75;3.40;;;3.10;99.90;;;;;;5008576;28;20033;-66
2022/01/20 04:01:14;;;;;;;10.98;3.47;;;3.10;99.90;;;;;;5007264;28;20065;-66
2022/01/20 04:03:40;;;;;;;9.27;4.20;;;3.10;99.90;;;;;;5009744;28;20486;-65
2022/01/20 04:06:06;;;;;;;21.13;4.63;;;3.00;99.90;;;;;;5007728;28;20058;-65
2022/01/20 04:08:35;;;;;;;11.93;4.78;;;3.00;99.90;;;;;;5009219;28;20023;-65
2022/01/20 04:11:07;;;;;;;14.48;5.00;;;3.00;99.90;;;;;;5005059;28;20041;-65
2022/01/20 04:13:33;;;;;;;7.93;3.20;;;3.00;99.90;;;;;;5008881;28;20493;-67
2022/01/20 04:16:01;;;;;;;10.30;3.72;;;2.90;99.90;;;;;;5008761;28;20053;-65
2022/01/20 04:18:29;;;;;;;8.95;3.03;;;3.00;99.90;;;;;;5008542;28;20653;-66
2022/01/20 04:20:55;;;;;;;4.85;2.70;;;3.00;99.90;;;;;;5008549;28;20072;-65
2022/01/20 04:23:21;;;;;;;7.65;4.70;;;2.90;99.90;;;;;;5007082;28;20030;-66
2022/01/20 04:25:47;;;;;;;9.10;3.33;;;2.90;99.90;;;;;;5008104;28;20040;-65
2022/01/20 04:28:12;;;;;;;8.10;4.03;;;2.90;99.90;;;;;;5008853;28;20426;-66
2022/01/20 04:30:38;;;;;;;8.07;4.05;;;2.90;99.90;;;;;;5008547;28;20060;-66
2022/01/20 04:33:04;;;;;;;8.93;3.97;;;2.90;99.90;;;;;;5008492;28;20037;-66
2022/01/20 04:35:30;;;;;;;8.10;3.97;;;3.00;99.90;;;;;;5007270;28;20022;-65
2022/01/20 04:37:58;;;;;;;7.88;3.92;;;3.00;99.90;;;;;;5006652;28;20484;-66
2022/01/20 04:40:23;;;;;;;7.90;3.40;;;3.00;99.90;;;;;;5007287;28;20045;-66
2022/01/20 04:42:50;;;;;;;8.60;3.50;;;3.00;99.90;;;;;;5009219;28;20127;-66
2022/01/20 04:45:24;;;;;;;5.40;3.33;;;3.00;99.90;;;;;;5007520;28;20046;-69
2022/01/20 04:48:02;;;;;;;8.50;2.88;;;2.90;99.90;;;;;;5008005;28;20010;-66
2022/01/20 04:58:42;;;;;;;5.85;3.40;;;2.80;99.90;;;;;;5008486;28;20048;-65
2022/01/20 05:01:08;;;;;;;6.65;3.85;;;2.70;99.90;;;;;;5008316;28;20446;-66
2022/01/20 05:03:46;;;;;;;5.90;3.90;;;2.60;99.90;;;;;;5007629;28;20030;-66
2022/01/20 05:06:12;;;;;;;7.25;3.80;;;2.60;99.90;;;;;;5008512;28;20026;-65
2022/01/20 05:08:37;;;;;;;6.55;4.28;;;2.50;99.90;;;;;;5006816;28;20092;-66
2022/01/20 05:11:04;;;;;;;7.97;4.50;;;2.50;99.90;;;;;;5006763;28;20490;-66
2022/01/20 05:13:36;;;;;;;6.75;4.50;;;2.40;99.90;;;;;;5008533;28;20559;-66
2022/01/20 05:16:03;;;;;;;10.05;4.30;;;2.40;99.90;;;;;;5006798;28;20037;-65
2022/01/20 05:18:29;;;;;;;8.23;4.25;;;2.40;99.90;;;;;;5007466;28;20050;-65
2022/01/20 05:20:55;;;;;;;6.47;4.38;;;2.40;99.90;;;;;;5008436;28;20422;-65
2022/01/20 05:23:21;;;;;;;8.57;5.50;;;2.40;99.90;;;;;;5006704;28;20493;-65
2022/01/20 05:25:47;;;;;;;9.75;4.03;;;2.40;99.90;;;;;;5004320;28;20045;-65
2022/01/20 05:28:12;;;;;;;8.90;4.20;;;2.40;99.90;;;;;;5005700;28;20054;-65
2022/01/20 05:30:40;;;;;;;11.77;5.60;;;2.40;99.90;;;;;;5008550;28;20030;-64
2022/01/20 05:33:07;;;;;;;7.60;3.47;;;2.40;99.90;;;;;;5007448;28;20054;-64
2022/01/20 05:35:32;;;;;;;7.68;3.60;;;2.50;99.90;;;;;;5007416;28;20038;-64
2022/01/20 05:37:58;;;;;;;12.07;3.92;;;2.40;99.90;;;;;;5008159;28;20050;-64
2022/01/20 05:40:24;;;;;;;10.80;3.40;;;2.40;99.90;;;;;;5006913;28;20026;-65
2022/01/20 05:42:51;;;;;;;11.52;3.85;;;2.50;99.90;;;;;;5007910;28;20076;-65
2022/01/20 05:45:17;;;;;;;6.05;3.22;;;2.50;99.90;;;;;;5003830;28;20041;-67
2022/01/20 05:47:47;;;;;;;8.00;4.22;;;2.50;99.90;;;;;;5008163;28;20056;-65
2022/01/20 05:50:20;;;;;;;11.45;5.75;;;2.50;99.90;;;;;;5006484;28;20041;-65
2022/01/20 05:52:46;;;;;;;8.15;4.03;;;2.50;99.90;;;;;;5006241;28;20486;-65
2022/01/20 05:55:15;;;;;;;9.75;4.10;;;2.50;99.90;;;;;;5008014;28;20026;-65
2022/01/20 05:57:41;;;;;;;13.13;6.57;;;2.60;99.90;;;;;;5007458;28;20586;-64
2022/01/20 06:00:11;;;;;;;6.18;4.80;;;2.60;99.90;;;;;;5006143;28;20233;-65
2022/01/20 06:03:36;;;;;;;6.90;4.35;;;2.60;99.90;;;;;;5007465;28;20061;-63
2022/01/20 06:05:22;;;;;;;13.57;4.45;;;2.60;99.90;;;;;;5006456;28;20030;-65
2022/01/20 06:07:48;;;;;;;11.32;4.72;;;2.50;99.90;;;;;;5006194;28;20180;-64
2022/01/20 06:10:13;;;;;;;7.80;4.30;;;2.50;99.90;;;;;;5005847;28;20042;-70
2022/01/20 06:12:39;;;;;;;7.65;3.67;;;2.50;99.90;;;;;;5005955;28;20116;-64
2022/01/20 06:15:05;;;;;;;6.43;3.75;;;2.50;99.90;;;;;;5002364;28;20093;-63
2022/01/20 06:17:34;;;;;;;7.03;3.47;;;2.50;99.90;;;;;;5004906;28;20072;-64
2022/01/20 06:20:00;;;;;;;9.00;3.90;;;2.50;99.90;;;;;;5005874;28;20101;-63
2022/01/20 06:22:26;;;;;;;10.23;4.10;;;2.50;99.90;;;;;;5007462;28;20034;-63
2022/01/20 06:24:52;;;;;;;9.40;3.83;;;2.50;99.90;;;;;;5004957;28;20394;-63
2022/01/20 06:27:17;;;;;;;10.55;3.78;;;2.60;99.90;;;;;;5006667;28;20258;-65
2022/01/20 06:29:43;;;;;;;6.63;3.65;;;2.60;99.90;;;;;;5007600;28;20026;-64
2022/01/20 06:32:09;;;;;;;9.30;3.75;;;2.60;99.90;;;;;;5006530;28;20389;-64
2022/01/20 06:34:35;;;;;;;6.32;3.63;;;2.60;99.90;;;;;;5004421;28;20080;-64
2022/01/20 06:37:00;;;;;;;11.60;5.03;;;2.60;99.90;;;;;;5004820;28;20041;-64
2022/01/20 06:39:26;;;;;;;7.95;3.45;;;2.60;99.90;;;;;;5004261;28;20413;-64
2022/01/20 06:41:55;;;;;;;8.35;3.50;;;2.60;99.90;;;;;;5006168;28;20519;-64
2022/01/20 06:44:21;;;;;;;8.98;3.22;;;2.60;99.90;;;;;;5007328;28;20113;-65
2022/01/20 06:46:48;;;;;;;7.93;3.20;;;2.60;99.90;;;;;;5010003;28;20302;-64
2022/01/20 06:49:29;;;;;;;9.43;3.58;;;2.60;99.90;;;;;;5008126;28;20025;-64
2022/01/20 06:51:55;;;;;;;20.25;4.47;;;2.60;99.90;;;;;;5005869;28;20066;-64
2022/01/20 06:54:21;;;;;;;8.68;4.30;;;2.60;99.90;;;;;;5010208;28;20052;-64
2022/01/20 06:56:46;;;;;;;12.52;3.70;;;2.60;99.90;;;;;;5008755;28;20036;-64
2022/01/20 06:59:28;;;;;;;7.68;3.45;;;2.60;99.90;;;;;;5010574;28;20109;-64
2022/01/20 07:01:54;;;;;;;12.15;3.33;;;2.60;99.90;;;;;;5009569;28;20041;-64
2022/01/20 07:04:20;;;;;;;8.23;2.70;;;2.70;99.90;;;;;;5011221;28;20381;-64
2022/01/20 07:06:45;;;;;;;11.75;3.78;;;2.70;99.90;;;;;;5009720;28;20512;-64
2022/01/20 07:09:11;;;;;;;9.15;3.08;;;2.80;99.90;;;;;;5011527;28;20034;-64
2022/01/20 07:11:38;;;;;;;8.18;3.28;;;2.80;99.90;;;;;;5010322;28;20026;-64
2022/01/20 07:14:20;;;;;;;7.95;3.10;;;2.80;99.90;;;;;;5009135;28;20485;-64
2022/01/20 07:16:47;;;;;;;16.55;3.33;;;2.80;99.90;;;;;;5008098;28;20038;-63
2022/01/20 07:19:13;;;;;;;11.23;3.22;;;2.80;99.90;;;;;;5009791;28;20386;-63
2022/01/20 07:21:39;;;;;;;6.90;2.47;;;2.80;99.90;;;;;;5009528;28;20029;-64
2022/01/20 07:24:06;;;;;;;11.70;2.97;;;2.80;99.90;;;;;;5010170;28;20425;-63
2022/01/20 07:26:35;;;;;;;9.15;3.13;;;2.90;99.90;;;;;;5010843;28;20038;-63
2022/01/20 07:29:00;;;;;;;8.20;2.92;;;2.90;99.90;;;;;;5008361;28;20026;-63
2022/01/20 07:31:26;;;;;;;6.43;2.70;;;2.90;99.90;;;;;;5010044;28;20048;-63
2022/01/20 07:33:52;;;;;;;6.45;2.92;;;2.90;99.90;;;;;;5008172;28;20087;-64
2022/01/20 07:36:21;;;;;;;17.65;5.38;;;3.00;99.90;;;;;;5009439;28;20053;-64
2022/01/20 07:38:49;;;;;;;17.52;4.63;;;3.00;99.90;;;;;;5011156;28;20022;-69
2022/01/20 07:41:16;;;;;;;8.05;3.20;;;3.00;99.90;;;;;;5007910;28;20498;-69
2022/01/20 07:43:44;;;;;;;10.93;3.10;;;3.00;99.90;;;;;;5009803;28;20057;-69
2022/01/20 07:46:10;;;;;;;8.98;3.03;;;3.00;99.90;;;;;;5007798;28;20030;-68
2022/01/20 07:48:51;;;;;;;20.33;3.80;;;3.00;99.90;;;;;;5008104;28;20033;-69
2022/01/20 07:51:17;;;;;;;11.07;3.47;;;3.00;99.90;;;;;;5008574;28;20056;-69
2022/01/20 07:53:43;;;;;;;12.85;3.42;;;3.10;99.90;;;;;;5009592;28;20018;-68
2022/01/20 07:56:09;;;;;;;9.35;3.55;;;3.10;99.90;;;;;;5008865;28;20036;-69
2022/01/20 07:58:38;;;;;;;8.90;3.33;;;3.10;99.90;;;;;;5009167;28;20038;-68
2022/01/20 08:01:05;;;;;;;11.57;3.80;;;3.20;99.90;;;;;;5008863;28;20092;-68
2022/01/20 08:03:30;;;;;;;10.15;3.80;;;3.20;99.90;;;;;;5008023;28;20041;-69
2022/01/20 08:05:56;;;;;;;8.90;3.22;;;3.20;99.90;;;;;;5009686;28;20026;-69
2022/01/20 08:08:22;;;;;;;8.00;3.15;;;3.20;99.90;;;;;;5005451;28;20430;-68
2022/01/20 08:10:47;;;;;;;11.73;4.68;;;3.20;99.90;;;;;;5009051;28;20022;-68
2022/01/20 08:13:13;;;;;;;7.75;3.90;;;3.20;99.90;;;;;;5007538;28;20758;-68
2022/01/20 08:15:42;;;;;;;6.60;3.33;;;3.20;99.90;;;;;;5008657;28;20481;-69
2022/01/20 08:18:07;;;;;;;11.80;3.10;;;3.20;99.90;;;;;;5009387;28;20033;-69
2022/01/20 08:20:33;;;;;;;13.60;3.30;;;3.30;99.90;;;;;;5005418;28;20497;-68
2022/01/20 08:23:03;;;;;;;7.20;3.85;;;3.30;99.90;;;;;;5006250;28;20037;-69
2022/01/20 08:25:28;;;;;;;14.40;5.07;;;3.40;99.90;;;;;;5005789;28;20079;-68
2022/01/20 08:27:54;;;;;;;8.15;3.83;;;3.50;99.90;;;;;;5008059;28;21945;-68
2022/01/20 08:30:22;;;;;;;10.88;3.33;;;3.50;99.90;;;;;;5006904;28;20026;-68
2022/01/20 08:32:48;;;;;;;9.13;3.78;;;3.50;99.90;;;;;;5006775;28;20489;-69
2022/01/20 08:35:15;;;;;;;12.05;4.18;;;3.60;99.90;;;;;;5007825;28;20079;-68
2022/01/20 08:37:45;;;;;;;15.18;4.03;;;3.70;99.90;;;;;;5007906;28;20413;-69
2022/01/20 08:40:16;;;;;;;18.73;4.13;;;3.80;99.90;;;;;;5008065;28;20390;-68
2022/01/20 08:42:44;;;;;;;6.47;3.63;;;3.80;99.90;;;;;;5007428;28;20122;-68
2022/01/20 08:45:11;;;;;;;9.70;2.92;;;3.80;99.90;;;;;;5006504;28;20030;-69
2022/01/20 08:47:37;;;;;;;10.13;3.33;;;3.90;99.90;;;;;;4996523;28;20030;-68
2022/01/20 08:50:05;;;;;;;8.68;3.67;;;3.90;99.90;;;;;;5006851;28;20092;-68
2022/01/20 08:52:31;;;;;;;9.18;3.28;;;3.90;99.90;;;;;;5005345;28;20048;-69
2022/01/20 08:54:58;;;;;;;8.23;2.70;;;4.00;99.90;;;;;;5006426;28;20458;-69
2022/01/20 08:57:28;;;;;;;10.13;3.33;;;3.90;99.90;;;;;;5008932;28;20029;-69
2022/01/20 09:00:00;;;;;;;7.28;3.15;;;3.90;99.90;;;;;;5004756;28;20010;-69
2022/01/20 09:02:25;;;;;;;12.80;2.38;;;4.00;99.90;;;;;;5002831;28;20034;-68
2022/01/20 09:05:03;;;;;;;8.60;2.65;;;4.00;99.90;;;;;;5001855;28;20081;-68
2022/01/20 09:07:29;;;;;;;7.28;2.72;;;4.00;99.90;;;;;;5005994;28;20037;-68
2022/01/20 09:09:55;;;;;;;7.70;3.05;;;4.00;99.90;;;;;;5007216;28;20126;-69
2022/01/20 09:17:45;;;;;;;8.13;3.90;;;4.00;99.90;;;;;;5005632;28;20080;-69
2022/01/20 09:20:10;;;;;;;7.78;3.58;;;3.90;99.90;;;;;;5007951;28;20026;-68
2022/01/20 09:22:37;;;;;;;9.63;2.95;;;3.80;99.90;;;;;;5005412;28;20023;-69
2022/01/20 09:25:04;;;;;;;7.10;2.65;;;3.70;99.90;;;;;;5006711;28;20034;-69
2022/01/20 09:27:33;;;;;;;12.35;4.32;;;3.50;99.90;;;;;;5007688;28;20109;-68
2022/01/20 09:30:00;;;;;;;8.45;2.20;;;3.20;99.90;;;;;;5005534;28;20139;-71
2022/01/20 09:32:31;;;;;;;5.68;3.03;;;2.90;99.90;;;;;;5005408;28;20033;-70
2022/01/20 09:35:02;;;;;;;10.70;2.83;;;2.80;99.90;;;;;;5005642;28;20084;-68
2022/01/20 09:37:27;;;;;;;6.60;2.58;;;2.70;99.90;;;;;;5008126;28;20465;-68
2022/01/20 09:39:54;;;;;;;14.20;4.85;;;2.60;99.90;;;;;;5007106;28;20026;-68
2022/01/20 09:42:20;;;;;;;10.70;4.78;;;2.50;99.90;;;;;;5003717;28;20108;-69
2022/01/20 09:44:47;;;;;;;5.63;2.90;;;2.50;99.90;;;;;;5006786;28;20413;-69
2022/01/20 09:47:16;;;;;;;6.47;2.42;;;2.60;99.90;;;;;;5006560;28;20029;-69
2022/01/20 09:49:42;;;;;;;4.53;1.92;;;2.60;99.90;;;;;;5005934;28;20142;-69
2022/01/20 09:52:08;;;;;;;4.97;2.58;;;2.60;99.90;;;;;;5007261;28;20030;-69
2022/01/20 09:54:34;;;;;;;3.80;1.58;;;2.60;99.90;;;;;;5006630;28;20148;-69
2022/01/20 09:57:06;;;;;;;7.82;3.30;;;2.60;99.90;;;;;;5006106;28;20033;-68
2022/01/20 09:59:32;;;;;;;3.72;2.70;;;2.70;99.90;;;;;;5008494;28;20033;-69
2022/01/20 10:01:59;;;;;;;5.40;3.80;;;2.70;99.90;;;;;;5006070;28;20033;-68
2022/01/20 10:04:32;;;;;;;6.55;2.25;;;2.80;99.90;;;;;;5007543;28;20105;-68
2022/01/20 10:07:02;;;;;;;5.82;2.50;;;2.90;99.90;;;;;;5007206;28;20034;-68
2022/01/20 10:09:30;;;;;;;7.45;2.08;;;3.00;99.90;;;;;;5005846;28;20077;-68
2022/01/20 10:11:56;;;;;;;4.85;1.83;;;3.30;99.90;;;;;;5006637;28;20018;-69
2022/01/20 10:14:21;;;;;;;4.93;1.25;;;3.50;99.90;;;;;;5007367;28;20367;-69
2022/01/20 10:16:50;;;;;;;4.50;1.10;;;3.90;99.90;;;;;;5004682;28;20034;-69
2022/01/20 10:19:28;;;;;;;3.63;1.30;;;4.20;99.90;;;;;;5006771;28;20113;-69
2022/01/20 10:21:54;;;;;;;1.55;0.90;;;4.60;99.90;;;;;;5009526;28;20076;-70
2022/01/20 10:24:19;;;;;;;7.88;2.08;;;5.00;99.90;;;;;;5009949;28;20101;-69
2022/01/20 10:26:51;;;;;;;3.97;1.10;;;5.00;99.90;;;;;;5009985;28;20057;-69
2022/01/20 10:29:17;;;;;;;2.35;1.08;;;5.00;99.90;;;;;;5011755;28;20375;-69
2022/01/20 10:31:52;;;;;;;9.13;3.28;;;4.80;99.90;;;;;;5010149;28;20030;-68
2022/01/20 10:34:31;;;;;;;4.10;1.67;;;4.60;99.90;;;;;;5010722;28;20498;-68
2022/01/20 10:37:00;;;;;;;5.00;1.10;;;4.60;99.90;;;;;;5009855;28;20093;-69
2022/01/20 10:39:42;;;;;;;2.83;1.30;;;4.70;99.90;;;;;;5008964;28;20022;-69
2022/01/20 10:42:15;;;;;;;4.35;0.90;;;4.70;99.90;;;;;;5009446;28;20952;-69
2022/01/20 10:44:42;;;;;;;5.70;1.63;;;4.70;99.90;;;;;;5011329;28;20026;-69
2022/01/20 10:47:15;;;;;;;5.03;1.48;;;4.70;99.90;;;;;;5009474;28;20030;-69
2022/01/20 10:50:07;;;;;;;5.20;1.70;;;4.80;99.90;;;;;;5005502;28;20499;-69
2022/01/20 10:52:36;;;;;;;3.22;1.88;;;4.90;99.90;;;;;;5010119;28;20041;-69
2022/01/20 10:55:06;;;;;;;3.35;1.17;;;5.00;99.90;;;;;;5008858;28;20038;-69
2022/01/20 10:57:34;;;;;;;3.95;1.40;;;5.30;99.90;;;;;;5009675;28;20076;-69
2022/01/20 11:00:11;;;;;;;10.18;1.75;;;5.60;99.90;;;;;;4999960;28;20088;-69
2022/01/20 11:02:39;;;;;;;5.40;2.95;;;5.80;99.90;;;;;;5010439;28;20091;-69
2022/01/20 11:05:06;;;;;;;4.43;1.75;;;5.80;99.90;;;;;;5010675;28;20034;-69
2022/01/20 11:07:33;;;;;;;4.72;1.48;;;5.60;99.40;;;;;;5010544;28;20160;-69
2022/01/20 11:10:02;;;;;;;4.47;1.20;;;5.50;99.90;;;;;;5008811;28;20034;-68
2022/01/20 11:12:28;;;;;;;4.85;1.40;;;5.30;99.90;;;;;;5005686;28;20022;-68
2022/01/20 11:14:55;;;;;;;4.07;1.60;;;5.40;94.90;;;;;;5025398;28;20371;-68
2022/01/20 11:17:22;;;;;;;2.17;1.08;;;5.60;93.20;;;;;;5007977;28;20667;-68
2022/01/20 11:19:49;;;;;;;4.57;1.10;;;5.70;92.20;;;;;;5006449;28;20363;-68
2022/01/20 11:22:15;;;;;;;4.78;1.25;;;5.60;91.00;;;;;;5010531;28;20034;-68
2022/01/20 11:24:42;;;;;;;4.38;0.98;;;5.70;91.40;;;;;;5010359;28;20026;-68
2022/01/20 11:27:12;;;;;;;4.72;1.27;;;5.90;91.90;;;;;;5011371;28;20239;-69
2022/01/20 11:29:40;;;;;;;3.35;0.90;;;6.10;94.50;;;;;;5009483;28;20034;-68
2022/01/20 11:32:23;;;;;;;7.75;1.52;;;6.30;95.20;;;;;;5008443;28;20072;-69
2022/01/20 11:35:08;;;;;;;4.22;2.00;;;6.50;95.00;;;;;;5005981;28;20087;-69
2022/01/20 11:37:40;;;;;;;7.95;1.48;;;6.40;91.30;;;;;;5009396;28;20061;-69
2022/01/20 11:40:20;;;;;;;5.13;2.80;;;6.20;90.40;;;;;;5009757;28;20708;-69
2022/01/20 11:43:10;;;;;;;7.80;1.30;;;6.20;90.20;;;;;;5008716;28;20030;-68
2022/01/20 11:45:37;;;;;;;9.57;1.00;;;5.90;85.90;;;;;;5009083;28;20042;-69
2022/01/20 11:48:23;;;;;;;4.85;1.42;;;5.60;85.50;;;;;;5009583;28;20048;-69
2022/01/20 11:51:05;;;;;;;3.28;1.40;;;5.30;87.30;;;;;;5009812;28;20056;-69
2022/01/20 11:53:55;;;;;;;5.32;1.45;;;5.00;87.60;;;;;;5009371;28;20146;-69
2022/01/20 11:56:33;;;;;;;4.20;1.25;;;4.80;91.70;;;;;;5009317;28;20022;-69
2022/01/20 11:58:59;;;;;;;4.60;0.95;;;4.90;91.30;;;;;;5009403;28;20405;-69
2022/01/20 12:01:27;;;;;;;2.58;0.85;;;5.00;90.50;;;;;;5009385;28;20018;-68
2022/01/20 12:03:55;;;;;;;2.63;1.00;;;5.10;91.30;;;;;;5006818;28;20026;-69
2022/01/20 12:06:25;;;;;;;5.65;1.00;;;5.50;90.00;;;;;;5008300;28;20061;-68
2022/01/20 12:09:04;;;;;;;3.10;0.80;;;5.80;87.40;;;;;;5005711;28;20037;-69
2022/01/20 12:11:35;;;;;;;5.72;1.80;;;5.90;86.20;;;;;;5005025;28;20030;-69
2022/01/20 12:14:01;;;;;;;4.57;2.05;;;6.10;86.80;;;;;;5005235;28;20034;-69
2022/01/20 12:16:27;;;;;;;4.97;1.35;;;6.10;81.40;;;;;;5007109;28;20547;-68
2022/01/20 12:18:56;;;;;;;10.35;1.98;;;6.40;83.90;;;;;;5006851;28;20456;-69
2022/01/20 12:21:23;;;;;;;5.57;1.42;;;6.70;82.40;;;;;;5003394;28;20435;-68
2022/01/20 12:23:54;;;;;;;2.83;1.00;;;7.30;79.30;;;;;;5010056;28;20421;-69
2022/01/20 12:26:20;;;;;;;5.32;1.02;;;7.40;75.90;;;;;;5008441;28;20083;-68
2022/01/20 12:28:46;;;;;;;5.35;1.20;;;7.30;77.00;;;;;;5008866;28;20652;-68
2022/01/20 12:31:15;;;;;;;1.92;1.30;;;7.40;76.80;;;;;;5007589;28;20666;-70
2022/01/20 12:33:46;;;;;;;3.90;1.63;;;7.30;77.30;;;;;;5005752;28;20270;-69
2022/01/20 12:36:13;;;;;;;2.83;1.52;;;7.20;77.30;;;;;;5009767;28;20084;-69
2022/01/20 12:38:54;;;;;;;3.65;1.50;;;7.10;76.10;;;;;;5005981;28;20038;-69
2022/01/20 12:41:22;;;;;;;4.78;1.00;;;6.60;75.30;;;;;;5005366;28;20026;-68
2022/01/20 12:44:04;;;;;;;5.35;0.98;;;6.10;75.20;;;;;;5008202;28;20069;-69
2022/01/20 12:46:33;;;;;;;3.45;0.90;;;5.80;77.20;;;;;;5008909;28;20133;-68
2022/01/20 12:49:04;;;;;;;3.80;0.88;;;5.60;77.70;;;;;;5008014;28;20038;-68
2022/01/20 12:51:33;;;;;;;1.25;0.85;;;5.50;78.30;;;;;;5006350;28;20088;-68
2022/01/20 12:54:16;;;;;;;4.80;1.00;;;5.20;78.70;;;;;;4998720;28;20034;-68
2022/01/20 12:56:51;;;;;;;6.93;2.00;;;5.00;79.10;;;;;;5005289;28;20034;-68
2022/01/20 12:59:31;;;;;;;3.40;0.77;;;4.60;84.00;;;;;;5006591;28;20424;-68
2022/01/20 13:02:00;;;;;;;7.80;0.95;;;4.30;92.30;;;;;;5007785;28;20026;-68
2022/01/20 13:04:29;;;;;;;6.05;1.15;;;3.90;99.90;;;;;;5007410;28;20389;-67
2022/01/20 13:07:02;;;;;;;4.05;0.95;;;3.90;99.90;;;;;;5008318;28;20034;-68
2022/01/20 13:10:00;;;;;;;4.63;1.02;;;4.10;99.90;;;;;;5006956;28;20033;-68
2022/01/20 13:12:39;;;;;;;4.32;1.92;;;4.60;99.90;;;;;;5008824;28;20449;-69
2022/01/20 13:15:17;;;;;;;3.50;1.42;;;5.00;99.90;;;;;;5005976;28;20029;-68
2022/01/20 13:17:45;;;;;;;4.20;1.83;;;5.20;94.60;;;;;;5008074;28;20038;-68
2022/01/20 13:20:15;;;;;;;9.93;1.55;;;5.20;95.10;;;;;;5007403;28;20385;-67
2022/01/20 13:22:55;;;;;;;5.25;1.02;;;5.10;94.90;;;;;;5008739;28;20053;-68
2022/01/20 13:25:30;;;;;;;4.00;0.93;;;5.00;93.30;;;;;;5006371;28;20026;-67
2022/01/20 13:28:04;;;;;;;2.80;1.10;;;4.60;94.10;;;;;;5007954;28;20026;-67
2022/01/20 13:30:47;;;;;;;2.65;0.95;;;4.40;99.90;;;;;;5005317;28;20145;-67
2022/01/20 13:33:17;;;;;;;8.55;1.02;;;4.10;99.90;;;;;;5007045;28;20022;-67
2022/01/20 13:35:44;;;;;;;2.08;0.75;;;3.70;99.90;;;;;;5007647;28;20034;-68
2022/01/20 13:38:11;;;;;;;6.95;1.17;;;3.70;99.90;;;;;;5006061;28;20034;-67
2022/01/20 13:40:39;;;;;;;4.80;1.48;;;3.90;99.90;;;;;;5007546;28;20054;-68
2022/01/20 13:45:45;;;;;;;3.97;1.10;;;4.40;99.90;;;;;;5007731;28;20565;-68
2022/01/20 13:48:13;;;;;;;2.47;0.93;;;4.60;99.90;;;;;;5006425;28;20062;-67
2022/01/20 13:50:44;;;;;;;1.23;0.90;;;5.00;99.90;;;;;;5007207;28;20046;-67
2022/01/20 13:53:25;;;;;;;3.08;1.50;;;5.20;99.90;;;;;;5005302;28;20034;-69
2022/01/20 13:55:50;;;;;;;2.88;1.10;;;5.50;99.90;;;;;;5010487;28;20033;-68
2022/01/20 13:58:27;;;;;;;5.68;1.45;;;5.70;99.90;;;;;;5011777;28;20509;-67
2022/01/20 14:00:56;;;;;;;5.93;1.90;;;5.90;99.90;;;;;;5010046;28;20030;-67
2022/01/20 14:03:26;;;;;;;6.70;1.60;;;6.30;99.90;;;;;;5012656;28;20041;-67
2022/01/20 14:05:55;;;;;;;4.32;1.20;;;6.60;95.20;;;;;;5010799;28;20045;-68
2022/01/20 14:08:24;;;;;;;3.88;1.42;;;6.60;94.60;;;;;;5010731;28;20432;-68